createdAt,value
2022-08-26T00:00:03.610Z,21.48
2022-08-26T00:00:13.625Z,21.49
2022-08-26T00:00:23.579Z,21.49
2022-08-26T00:00:33.595Z,21.49
2022-08-26T00:00:43.627Z,21.47
2022-08-26T00:00:53.664Z,21.49
2022-08-26T00:01:03.607Z,21.49
2022-08-26T00:01:13.626Z,21.49
2022-08-26T00:01:29.198Z,21.50
2022-08-26T00:01:35.524Z,21.47
2022-08-26T00:01:44.807Z,21.49
2022-08-26T00:01:53.842Z,21.50
2022-08-26T00:02:03.673Z,21.51
2022-08-26T00:02:13.642Z,21.50
2022-08-26T00:02:23.757Z,21.50
2022-08-26T00:02:33.609Z,21.51
2022-08-26T00:02:43.687Z,21.51
2022-08-26T00:02:53.636Z,21.52
2022-08-26T00:03:05.592Z,21.51
2022-08-26T00:03:13.625Z,21.48
2022-08-26T00:03:23.576Z,21.50
2022-08-26T00:03:35.600Z,21.51
2022-08-26T00:03:45.606Z,21.50
2022-08-26T00:03:55.547Z,21.50
2022-08-26T00:04:03.663Z,21.51
2022-08-26T00:04:15.589Z,21.52
2022-08-26T00:04:25.955Z,21.51
2022-08-26T00:04:35.011Z,21.49
2022-08-26T00:04:43.577Z,21.50
2022-08-26T00:04:53.575Z,21.52
2022-08-26T00:05:03.574Z,21.52
2022-08-26T00:05:13.587Z,21.51
2022-08-26T00:05:23.696Z,21.51
2022-08-26T00:05:33.536Z,21.51
2022-08-26T00:05:43.615Z,21.51
2022-08-26T00:05:53.579Z,21.52
2022-08-26T00:06:03.560Z,21.51
2022-08-26T00:06:14.388Z,21.51
2022-08-26T00:06:23.986Z,21.48
2022-08-26T00:06:34.248Z,21.50
2022-08-26T00:06:46.338Z,21.50
2022-08-26T00:06:54.629Z,21.50
2022-08-26T00:07:05.788Z,21.51
2022-08-26T00:07:14.607Z,21.50
2022-08-26T00:07:24.867Z,21.51
2022-08-26T00:07:34.664Z,21.51
2022-08-26T00:07:44.700Z,21.50
2022-08-26T00:07:54.218Z,21.49
2022-08-26T00:08:04.178Z,21.48
2022-08-26T00:08:14.715Z,21.49
2022-08-26T00:08:24.637Z,21.49
2022-08-26T00:08:34.705Z,21.47
2022-08-26T00:08:44.706Z,21.47
2022-08-26T00:08:54.149Z,21.45
2022-08-26T00:09:04.170Z,21.45
2022-08-26T00:09:16.307Z,21.42
2022-08-26T00:09:25.018Z,21.40
2022-08-26T00:09:37.264Z,21.41
2022-08-26T00:09:47.038Z,21.39
2022-08-26T00:09:55.363Z,21.37
2022-08-26T00:10:04.788Z,21.39
2022-08-26T00:10:14.847Z,21.39
2022-08-26T00:10:25.868Z,21.40
2022-08-26T00:10:34.788Z,21.39
2022-08-26T00:10:44.210Z,21.38
2022-08-26T00:10:54.857Z,21.40
2022-08-26T00:11:04.197Z,21.37
2022-08-26T00:11:14.621Z,21.38
2022-08-26T00:11:26.920Z,21.37
2022-08-26T00:11:34.697Z,21.35
2022-08-26T00:11:44.830Z,21.34
2022-08-26T00:11:54.187Z,21.34
2022-08-26T00:12:04.229Z,21.35
2022-08-26T00:12:14.157Z,21.34
2022-08-26T00:12:27.869Z,21.33
2022-08-26T00:12:37.344Z,21.29
2022-08-26T00:12:45.648Z,21.27
2022-08-26T00:12:54.160Z,21.29
2022-08-26T00:13:04.204Z,21.31
2022-08-26T00:13:14.148Z,21.30
2022-08-26T00:13:26.780Z,21.30
2022-08-26T00:13:34.140Z,21.26
2022-08-26T00:13:48.014Z,21.27
2022-08-26T00:13:54.139Z,21.24
2022-08-26T00:14:04.196Z,21.27
2022-08-26T00:14:15.642Z,21.26
2022-08-26T00:14:27.181Z,21.26
2022-08-26T00:14:34.140Z,21.24
2022-08-26T00:14:44.239Z,21.25
2022-08-26T00:14:54.216Z,21.26
2022-08-26T00:15:04.163Z,21.26
2022-08-26T00:15:14.253Z,21.26
2022-08-26T00:15:24.240Z,21.25
2022-08-26T00:15:34.211Z,21.25
2022-08-26T00:15:44.109Z,21.26
2022-08-26T00:15:54.331Z,21.25
2022-08-26T00:16:04.237Z,21.25
2022-08-26T00:16:14.140Z,21.25
2022-08-26T00:16:24.956Z,21.25
2022-08-26T00:16:34.199Z,21.25
2022-08-26T00:16:48.042Z,21.25
2022-08-26T00:16:54.118Z,21.20
2022-08-26T00:17:06.112Z,21.21
2022-08-26T00:17:14.171Z,21.18
2022-08-26T00:17:25.109Z,21.20
2022-08-26T00:17:36.293Z,21.18
2022-08-26T00:17:46.890Z,21.15
2022-08-26T00:17:54.942Z,21.14
2022-08-26T00:18:21.734Z,21.15
2022-08-26T00:18:21.961Z,21.11
2022-08-26T00:18:28.469Z,21.10
2022-08-26T00:18:38.855Z,21.08
2022-08-26T00:18:46.515Z,21.08
2022-08-26T00:18:56.476Z,21.10
2022-08-26T00:19:09.047Z,21.10
2022-08-26T00:19:17.120Z,21.07
2022-08-26T00:19:26.593Z,21.07
2022-08-26T00:19:37.490Z,21.08
2022-08-26T00:19:46.452Z,21.07
2022-08-26T00:19:56.497Z,21.08
2022-08-26T00:20:06.482Z,21.07
2022-08-26T00:20:16.498Z,21.06
2022-08-26T00:20:26.462Z,21.06
2022-08-26T00:20:36.470Z,21.05
2022-08-26T00:20:46.553Z,21.05
2022-08-26T00:20:56.453Z,21.03
2022-08-26T00:21:06.498Z,21.04
2022-08-26T00:21:16.472Z,21.03
2022-08-26T00:21:26.462Z,21.02
2022-08-26T00:21:37.609Z,21.02
2022-08-26T00:21:46.485Z,21.02
2022-08-26T00:21:56.495Z,21.03
2022-08-26T00:22:06.473Z,21.04
2022-08-26T00:22:21.611Z,21.03
2022-08-26T00:22:26.642Z,21.00
2022-08-26T00:22:36.449Z,21.02
2022-08-26T00:22:46.483Z,21.04
2022-08-26T00:22:56.494Z,21.05
2022-08-26T00:23:06.645Z,21.05
2022-08-26T00:23:18.463Z,21.06
2022-08-26T00:23:26.483Z,21.03
2022-08-26T00:23:38.065Z,21.03
2022-08-26T00:23:46.777Z,21.05
2022-08-26T00:23:56.791Z,21.06
2022-08-26T00:24:08.543Z,21.06
2022-08-26T00:24:18.540Z,21.05
2022-08-26T00:24:28.056Z,21.06
2022-08-26T00:24:36.574Z,21.07
2022-08-26T00:24:47.818Z,21.08
2022-08-26T00:24:56.614Z,21.07
2022-08-26T00:25:08.531Z,21.10
2022-08-26T00:25:18.744Z,21.08
2022-08-26T00:25:28.724Z,21.08
2022-08-26T00:25:38.875Z,21.08
2022-08-26T00:25:47.494Z,21.06
2022-08-26T00:25:58.133Z,21.08
2022-08-26T00:26:08.304Z,21.08
2022-08-26T00:26:17.362Z,21.09
2022-08-26T00:26:29.326Z,21.09
2022-08-26T00:26:39.397Z,21.08
2022-08-26T00:26:47.275Z,21.07
2022-08-26T00:26:57.312Z,21.09
2022-08-26T00:27:07.365Z,21.09
2022-08-26T00:27:17.879Z,21.09
2022-08-26T00:27:28.245Z,21.10
2022-08-26T00:27:39.236Z,21.11
2022-08-26T00:27:47.602Z,21.10
2022-08-26T00:27:57.274Z,21.11
2022-08-26T00:28:07.674Z,21.11
2022-08-26T00:28:19.081Z,21.07
2022-08-26T00:28:27.262Z,21.06
2022-08-26T00:28:39.234Z,21.09
2022-08-26T00:28:47.714Z,21.06
2022-08-26T00:28:57.245Z,21.07
2022-08-26T00:29:07.284Z,21.08
2022-08-26T00:29:17.296Z,21.07
2022-08-26T00:29:27.307Z,21.08
2022-08-26T00:29:37.756Z,21.08
2022-08-26T00:29:49.235Z,21.06
2022-08-26T00:29:59.263Z,21.05
2022-08-26T00:30:09.435Z,21.05
2022-08-26T00:30:17.728Z,21.05
2022-08-26T00:30:27.757Z,21.03
2022-08-26T00:30:37.788Z,21.04
2022-08-26T00:30:47.496Z,21.04
2022-08-26T00:30:57.768Z,21.01
2022-08-26T00:31:07.475Z,21.03
2022-08-26T00:31:17.869Z,21.00
2022-08-26T00:31:31.194Z,21.02
2022-08-26T00:31:37.643Z,20.98
2022-08-26T00:31:49.514Z,21.00
2022-08-26T00:31:57.668Z,21.01
2022-08-26T00:32:07.547Z,21.02
2022-08-26T00:32:17.456Z,21.02
2022-08-26T00:32:27.479Z,21.02
2022-08-26T00:32:39.426Z,21.02
2022-08-26T00:32:49.463Z,21.01
2022-08-26T00:32:58.919Z,20.99
2022-08-26T00:33:07.674Z,21.00
2022-08-26T00:33:19.455Z,21.01
2022-08-26T00:33:27.458Z,21.00
2022-08-26T00:33:37.489Z,21.02
2022-08-26T00:33:47.514Z,21.02
2022-08-26T00:33:57.576Z,21.01
2022-08-26T00:34:07.447Z,21.03
2022-08-26T00:34:19.514Z,21.02
2022-08-26T00:34:29.416Z,21.01
2022-08-26T00:34:37.515Z,21.03
2022-08-26T00:34:47.438Z,21.03
2022-08-26T00:34:59.406Z,21.02
2022-08-26T00:35:07.456Z,20.99
2022-08-26T00:35:19.488Z,20.99
2022-08-26T00:35:27.893Z,20.97
2022-08-26T00:35:39.392Z,21.00
2022-08-26T00:35:49.020Z,20.95
2022-08-26T00:35:59.039Z,20.95
2022-08-26T00:36:09.041Z,20.98
2022-08-26T00:36:20.634Z,20.95
2022-08-26T00:36:29.806Z,20.98
2022-08-26T00:36:38.979Z,20.99
2022-08-26T00:36:49.357Z,21.00
2022-08-26T00:36:58.967Z,20.97
2022-08-26T00:37:11.639Z,20.98
2022-08-26T00:37:19.099Z,20.95
2022-08-26T00:37:28.948Z,20.97
2022-08-26T00:37:38.997Z,20.97
2022-08-26T00:37:50.948Z,20.98
2022-08-26T00:38:00.889Z,20.96
2022-08-26T00:38:09.079Z,20.96
2022-08-26T00:38:19.091Z,20.98
2022-08-26T00:38:31.019Z,20.97
2022-08-26T00:38:39.201Z,20.96
2022-08-26T00:38:49.183Z,20.96
2022-08-26T00:39:01.008Z,20.96
2022-08-26T00:39:09.941Z,20.92
2022-08-26T00:39:21.048Z,20.93
2022-08-26T00:39:29.059Z,20.93
2022-08-26T00:39:39.151Z,20.95
2022-08-26T00:39:49.125Z,20.95
2022-08-26T00:40:00.588Z,20.94
2022-08-26T00:40:09.086Z,20.93
2022-08-26T00:40:19.270Z,20.93
2022-08-26T00:40:29.125Z,20.95
2022-08-26T00:40:41.008Z,20.95
2022-08-26T00:40:49.519Z,20.94
2022-08-26T00:41:01.080Z,20.94
2022-08-26T00:41:09.078Z,20.93
2022-08-26T00:41:21.020Z,20.95
2022-08-26T00:41:29.275Z,20.93
2022-08-26T00:41:39.293Z,20.95
2022-08-26T00:41:51.230Z,20.95
2022-08-26T00:42:01.222Z,20.94
2022-08-26T00:42:09.279Z,20.91
2022-08-26T00:42:19.291Z,20.93
2022-08-26T00:42:30.131Z,20.95
2022-08-26T00:42:41.231Z,20.94
2022-08-26T00:42:50.810Z,20.90
2022-08-26T00:43:02.780Z,20.93
2022-08-26T00:43:12.406Z,20.90
2022-08-26T00:43:22.421Z,20.93
2022-08-26T00:43:32.348Z,20.94
2022-08-26T00:43:47.144Z,20.90
2022-08-26T00:43:52.425Z,20.89
2022-08-26T00:44:02.361Z,20.92
2022-08-26T00:44:14.289Z,20.93
2022-08-26T00:44:22.351Z,20.93
2022-08-26T00:44:32.462Z,20.95
2022-08-26T00:44:44.311Z,20.94
2022-08-26T00:44:54.345Z,20.94
2022-08-26T00:45:04.330Z,20.96
2022-08-26T00:45:13.923Z,20.92
2022-08-26T00:45:25.904Z,20.95
2022-08-26T00:45:35.921Z,20.95
2022-08-26T00:45:43.947Z,20.91
2022-08-26T00:45:53.939Z,20.95
2022-08-26T00:46:03.990Z,20.95
2022-08-26T00:46:15.954Z,20.94
2022-08-26T00:46:23.902Z,20.92
2022-08-26T00:46:33.881Z,20.95
2022-08-26T00:46:46.547Z,20.95
2022-08-26T00:46:53.991Z,20.92
2022-08-26T00:47:03.893Z,20.94
2022-08-26T00:47:13.915Z,20.95
2022-08-26T00:47:23.948Z,20.92
2022-08-26T00:47:33.971Z,20.93
2022-08-26T00:47:43.884Z,20.95
2022-08-26T00:47:53.910Z,20.95
2022-08-26T00:48:05.955Z,20.95
2022-08-26T00:48:14.353Z,20.94
2022-08-26T00:48:23.912Z,20.95
2022-08-26T00:48:35.842Z,20.95
2022-08-26T00:48:44.472Z,20.93
2022-08-26T00:48:54.089Z,20.93
2022-08-26T00:49:11.948Z,20.94
2022-08-26T00:49:15.423Z,20.89
2022-08-26T00:49:27.430Z,20.92
2022-08-26T00:49:37.374Z,20.90
2022-08-26T00:49:45.414Z,20.91
2022-08-26T00:49:57.361Z,20.93
2022-08-26T00:50:05.406Z,20.92
2022-08-26T00:50:15.479Z,20.93
2022-08-26T00:50:25.503Z,20.93
2022-08-26T00:50:37.339Z,20.93
2022-08-26T00:50:47.344Z,20.90
2022-08-26T00:50:55.408Z,20.92
2022-08-26T00:51:07.374Z,20.95
2022-08-26T00:51:17.356Z,20.94
2022-08-26T00:51:29.722Z,20.94
2022-08-26T00:51:35.385Z,20.91
2022-08-26T00:51:45.404Z,20.92
2022-08-26T00:51:55.424Z,20.93
2022-08-26T00:52:09.823Z,20.93
2022-08-26T00:52:16.697Z,20.88
2022-08-26T00:52:28.623Z,20.92
2022-08-26T00:52:36.649Z,20.91
2022-08-26T00:52:48.660Z,20.92
2022-08-26T00:52:57.584Z,20.89
2022-08-26T00:53:06.821Z,20.91
2022-08-26T00:53:16.673Z,20.92
2022-08-26T00:53:27.854Z,20.92
2022-08-26T00:53:36.654Z,20.91
2022-08-26T00:53:48.634Z,20.92
2022-08-26T00:53:56.679Z,20.90
2022-08-26T00:54:06.665Z,20.92
2022-08-26T00:54:18.624Z,20.87
2022-08-26T00:54:27.027Z,20.89
2022-08-26T00:54:36.734Z,20.91
2022-08-26T00:54:46.644Z,20.91
2022-08-26T00:54:56.723Z,20.91
2022-08-26T00:55:08.582Z,20.91
2022-08-26T00:55:20.361Z,20.90
2022-08-26T00:55:27.462Z,20.87
2022-08-26T00:55:38.423Z,20.86
2022-08-26T00:55:46.648Z,20.89
2022-08-26T00:55:58.615Z,20.90
2022-08-26T00:56:08.140Z,20.90
2022-08-26T00:56:16.636Z,20.91
2022-08-26T00:56:28.615Z,20.92
2022-08-26T00:56:38.585Z,20.91
2022-08-26T00:56:48.651Z,20.91
2022-08-26T00:57:00.045Z,20.91
2022-08-26T00:57:15.827Z,20.88
2022-08-26T00:57:16.802Z,20.86
2022-08-26T00:57:26.686Z,20.89
2022-08-26T00:57:38.596Z,20.90
2022-08-26T00:57:48.125Z,20.89
2022-08-26T00:57:56.685Z,20.90
2022-08-26T00:58:08.616Z,20.91
2022-08-26T00:58:18.614Z,20.89
2022-08-26T00:58:26.706Z,20.89
2022-08-26T00:58:36.676Z,20.90
2022-08-26T00:58:46.667Z,20.90
2022-08-26T00:58:58.646Z,20.89
2022-08-26T00:59:08.596Z,20.87
2022-08-26T00:59:17.615Z,20.87
2022-08-26T00:59:28.641Z,20.86
2022-08-26T00:59:36.646Z,20.86
2022-08-26T00:59:46.677Z,20.86
2022-08-26T00:59:56.674Z,20.86
2022-08-26T01:00:06.685Z,20.86
2022-08-26T01:00:16.671Z,20.86
2022-08-26T01:00:26.656Z,20.86
2022-08-26T01:00:38.670Z,20.86
2022-08-26T01:00:48.669Z,20.86
2022-08-26T01:00:56.702Z,20.86
2022-08-26T01:01:06.723Z,20.88
2022-08-26T01:01:16.765Z,20.86
2022-08-26T01:01:26.673Z,20.86
2022-08-26T01:01:38.649Z,20.87
2022-08-26T01:01:48.654Z,20.85
2022-08-26T01:01:58.658Z,20.86
2022-08-26T01:02:08.639Z,20.87
2022-08-26T01:02:20.842Z,20.82
2022-08-26T01:02:29.690Z,20.81
2022-08-26T01:02:40.204Z,20.83
2022-08-26T01:02:49.728Z,20.80
2022-08-26T01:03:01.744Z,20.83
2022-08-26T01:03:12.808Z,20.82
2022-08-26T01:03:20.288Z,20.79
2022-08-26T01:03:30.337Z,20.81
2022-08-26T01:03:40.369Z,20.81
2022-08-26T01:03:50.305Z,20.82
2022-08-26T01:04:00.380Z,20.81
2022-08-26T01:04:10.368Z,20.82
2022-08-26T01:04:20.408Z,20.82
2022-08-26T01:04:30.338Z,20.82
2022-08-26T01:04:40.376Z,20.83
2022-08-26T01:04:55.799Z,20.79
2022-08-26T01:05:00.044Z,20.76
2022-08-26T01:05:10.006Z,20.80
2022-08-26T01:05:20.027Z,20.81
2022-08-26T01:05:29.998Z,20.81
2022-08-26T01:05:40.073Z,20.81
2022-08-26T01:05:50.041Z,20.81
2022-08-26T01:05:59.987Z,20.81
2022-08-26T01:06:12.978Z,20.82
2022-08-26T01:06:21.948Z,20.78
2022-08-26T01:06:31.938Z,20.79
2022-08-26T01:06:41.919Z,20.79
2022-08-26T01:06:50.869Z,20.78
2022-08-26T01:07:00.052Z,20.78
2022-08-26T01:07:10.009Z,20.80
2022-08-26T01:07:20.528Z,20.80
2022-08-26T01:07:31.185Z,20.80
2022-08-26T01:07:40.008Z,20.80
2022-08-26T01:07:50.549Z,20.81
2022-08-26T01:08:00.648Z,20.81
2022-08-26T01:08:10.498Z,20.77
2022-08-26T01:08:19.971Z,20.79
2022-08-26T01:08:30.570Z,20.80
2022-08-26T01:08:41.990Z,20.80
2022-08-26T01:08:50.538Z,20.79
2022-08-26T01:08:59.990Z,20.80
2022-08-26T01:09:10.915Z,20.79
2022-08-26T01:09:19.970Z,20.79
2022-08-26T01:09:30.171Z,20.79
2022-08-26T01:09:40.610Z,20.79
2022-08-26T01:09:50.854Z,20.78
2022-08-26T01:10:00.991Z,20.79
2022-08-26T01:10:11.940Z,20.78
2022-08-26T01:10:21.907Z,20.78
2022-08-26T01:10:31.429Z,20.78
2022-08-26T01:10:40.010Z,20.79
2022-08-26T01:10:50.657Z,20.79
2022-08-26T01:11:00.052Z,20.79
2022-08-26T01:11:10.200Z,20.79
2022-08-26T01:11:19.959Z,20.79
2022-08-26T01:11:29.981Z,20.79
2022-08-26T01:11:41.967Z,20.79
2022-08-26T01:11:51.410Z,20.76
2022-08-26T01:12:01.900Z,20.77
2022-08-26T01:12:10.062Z,20.77
2022-08-26T01:12:22.185Z,20.78
2022-08-26T01:12:31.478Z,20.77
2022-08-26T01:12:41.945Z,20.78
2022-08-26T01:12:50.241Z,20.74
2022-08-26T01:12:59.982Z,20.76
2022-08-26T01:13:10.020Z,20.77
2022-08-26T01:13:20.979Z,20.76
2022-08-26T01:13:30.810Z,20.76
2022-08-26T01:13:40.022Z,20.77
2022-08-26T01:13:49.981Z,20.75
2022-08-26T01:14:00.014Z,20.76
2022-08-26T01:14:10.013Z,20.74
2022-08-26T01:14:20.253Z,20.73
2022-08-26T01:14:30.113Z,20.73
2022-08-26T01:14:41.999Z,20.73
2022-08-26T01:14:51.225Z,20.67
2022-08-26T01:15:01.279Z,20.69
2022-08-26T01:15:11.881Z,20.69
2022-08-26T01:15:23.142Z,20.68
2022-08-26T01:15:32.774Z,20.67
2022-08-26T01:15:42.070Z,20.68
2022-08-26T01:15:51.233Z,20.68
2022-08-26T01:16:03.206Z,20.68
2022-08-26T01:16:11.272Z,20.66
2022-08-26T01:16:21.313Z,20.67
2022-08-26T01:16:31.980Z,20.67
2022-08-26T01:16:44.280Z,20.66
2022-08-26T01:16:51.313Z,20.63
2022-08-26T01:17:01.222Z,20.64
2022-08-26T01:17:11.209Z,20.65
2022-08-26T01:17:23.213Z,20.64
2022-08-26T01:17:33.852Z,20.63
2022-08-26T01:17:43.911Z,20.63
2022-08-26T01:17:53.153Z,20.61
2022-08-26T01:18:03.179Z,20.61
2022-08-26T01:18:12.664Z,20.64
2022-08-26T01:18:23.138Z,20.64
2022-08-26T01:18:31.200Z,20.61
2022-08-26T01:18:41.223Z,20.62
2022-08-26T01:18:51.214Z,20.62
2022-08-26T01:19:01.237Z,20.64
2022-08-26T01:19:13.210Z,20.62
2022-08-26T01:19:21.481Z,20.59
2022-08-26T01:19:33.122Z,20.62
2022-08-26T01:19:43.143Z,20.61
2022-08-26T01:19:52.178Z,20.61
2022-08-26T01:20:01.931Z,20.62
2022-08-26T01:20:13.353Z,20.63
2022-08-26T01:20:21.664Z,20.62
2022-08-26T01:20:33.632Z,20.63
2022-08-26T01:20:43.632Z,20.62
2022-08-26T01:20:53.675Z,20.62
2022-08-26T01:21:04.423Z,20.58
2022-08-26T01:21:12.543Z,20.61
2022-08-26T01:21:22.609Z,20.61
2022-08-26T01:21:33.293Z,20.61
2022-08-26T01:21:42.543Z,20.61
2022-08-26T01:21:53.413Z,20.62
2022-08-26T01:22:02.484Z,20.60
2022-08-26T01:22:13.495Z,20.61
2022-08-26T01:22:28.134Z,20.60
2022-08-26T01:22:33.263Z,20.57
2022-08-26T01:22:43.275Z,20.60
2022-08-26T01:22:53.281Z,20.59
2022-08-26T01:23:03.683Z,20.59
2022-08-26T01:23:13.274Z,20.60
2022-08-26T01:23:23.234Z,20.60
2022-08-26T01:23:33.274Z,20.60
2022-08-26T01:23:45.114Z,20.60
2022-08-26T01:23:57.524Z,20.59
2022-08-26T01:24:03.266Z,20.56
2022-08-26T01:24:13.894Z,20.58
2022-08-26T01:24:25.229Z,20.57
2022-08-26T01:24:33.265Z,20.55
2022-08-26T01:24:45.201Z,20.55
2022-08-26T01:24:55.195Z,20.53
2022-08-26T01:25:03.660Z,20.52
2022-08-26T01:25:13.274Z,20.53
2022-08-26T01:25:23.315Z,20.55
2022-08-26T01:25:33.358Z,20.55
2022-08-26T01:25:43.288Z,20.55
2022-08-26T01:25:53.316Z,20.55
2022-08-26T01:26:03.235Z,20.55
2022-08-26T01:26:19.833Z,20.54
2022-08-26T01:26:24.121Z,20.52
2022-08-26T01:26:33.356Z,20.51
2022-08-26T01:26:43.293Z,20.53
2022-08-26T01:26:53.340Z,20.54
2022-08-26T01:27:03.255Z,20.54
2022-08-26T01:27:13.223Z,20.54
2022-08-26T01:27:23.392Z,20.55
2022-08-26T01:27:33.640Z,20.55
2022-08-26T01:27:44.741Z,20.55
2022-08-26T01:27:54.238Z,20.52
2022-08-26T01:28:04.493Z,20.50
2022-08-26T01:28:14.536Z,20.53
2022-08-26T01:28:24.725Z,20.55
2022-08-26T01:28:34.496Z,20.56
2022-08-26T01:28:43.815Z,20.56
2022-08-26T01:28:53.838Z,20.53
2022-08-26T01:29:03.676Z,20.56
2022-08-26T01:29:14.537Z,20.56
2022-08-26T01:29:24.597Z,20.57
2022-08-26T01:29:33.716Z,20.57
2022-08-26T01:29:43.736Z,20.59
2022-08-26T01:29:55.617Z,20.58
2022-08-26T01:30:05.654Z,20.58
2022-08-26T01:30:15.646Z,20.58
2022-08-26T01:30:23.686Z,20.57
2022-08-26T01:30:33.726Z,20.60
2022-08-26T01:30:43.662Z,20.58
2022-08-26T01:30:53.667Z,20.58
2022-08-26T01:31:05.723Z,20.58
2022-08-26T01:31:14.305Z,20.55
2022-08-26T01:31:25.695Z,20.56
2022-08-26T01:31:33.795Z,20.56
2022-08-26T01:31:43.723Z,20.57
2022-08-26T01:31:53.717Z,20.57
2022-08-26T01:32:05.191Z,20.57
2022-08-26T01:32:13.737Z,20.56
2022-08-26T01:32:23.675Z,20.57
2022-08-26T01:32:35.634Z,20.56
2022-08-26T01:32:43.741Z,20.52
2022-08-26T01:32:53.657Z,20.55
2022-08-26T01:33:03.768Z,20.56
2022-08-26T01:33:13.647Z,20.56
2022-08-26T01:33:23.794Z,20.56
2022-08-26T01:33:39.973Z,20.56
2022-08-26T01:33:44.453Z,20.53
2022-08-26T01:33:55.626Z,20.53
2022-08-26T01:34:03.698Z,20.52
2022-08-26T01:34:13.750Z,20.53
2022-08-26T01:34:23.784Z,20.54
2022-08-26T01:34:35.599Z,20.54
2022-08-26T01:34:43.941Z,20.54
2022-08-26T01:34:53.788Z,20.55
2022-08-26T01:35:04.565Z,20.56
2022-08-26T01:35:13.877Z,20.55
2022-08-26T01:35:25.640Z,20.55
2022-08-26T01:35:35.588Z,20.54
2022-08-26T01:35:44.792Z,20.54
2022-08-26T01:35:53.898Z,20.55
2022-08-26T01:36:03.649Z,20.55
2022-08-26T01:36:13.668Z,20.55
2022-08-26T01:36:23.649Z,20.55
2022-08-26T01:36:35.599Z,20.55
2022-08-26T01:36:49.226Z,20.54
2022-08-26T01:36:54.729Z,20.51
2022-08-26T01:37:04.666Z,20.53
2022-08-26T01:37:15.954Z,20.54
2022-08-26T01:37:26.685Z,20.53
2022-08-26T01:37:36.119Z,20.53
2022-08-26T01:37:46.649Z,20.53
2022-08-26T01:37:56.665Z,20.54
2022-08-26T01:38:06.629Z,20.54
2022-08-26T01:38:16.647Z,20.52
2022-08-26T01:38:26.663Z,20.54
2022-08-26T01:38:36.247Z,20.49
2022-08-26T01:38:48.218Z,20.52
2022-08-26T01:38:58.244Z,20.51
2022-08-26T01:39:07.346Z,20.51
2022-08-26T01:39:16.447Z,20.51
2022-08-26T01:39:26.419Z,20.51
2022-08-26T01:39:38.173Z,20.51
2022-08-26T01:39:46.228Z,20.46
2022-08-26T01:39:58.263Z,20.47
2022-08-26T01:40:08.281Z,20.44
2022-08-26T01:40:18.213Z,20.43
2022-08-26T01:40:27.033Z,20.43
2022-08-26T01:40:41.641Z,20.43
2022-08-26T01:40:47.062Z,20.38
2022-08-26T01:40:59.003Z,20.41
2022-08-26T01:41:16.026Z,20.39
2022-08-26T01:41:19.901Z,20.37
2022-08-26T01:41:29.134Z,20.36
2022-08-26T01:41:39.620Z,20.37
2022-08-26T01:41:53.559Z,20.37
2022-08-26T01:42:02.906Z,20.33
2022-08-26T01:42:10.348Z,20.32
2022-08-26T01:42:20.470Z,20.34
2022-08-26T01:42:30.472Z,20.35
2022-08-26T01:42:38.504Z,20.36
2022-08-26T01:42:50.471Z,20.37
2022-08-26T01:42:58.492Z,20.36
2022-08-26T01:43:08.778Z,20.38
2022-08-26T01:43:20.478Z,20.37
2022-08-26T01:43:30.495Z,20.35
2022-08-26T01:43:40.461Z,20.36
2022-08-26T01:43:50.445Z,20.37
2022-08-26T01:43:58.492Z,20.38
2022-08-26T01:44:10.490Z,20.39
2022-08-26T01:44:19.452Z,20.39
2022-08-26T01:44:28.492Z,20.40
2022-08-26T01:44:40.452Z,20.41
2022-08-26T01:44:48.591Z,20.40
2022-08-26T01:44:59.301Z,20.42
2022-08-26T01:45:08.502Z,20.41
2022-08-26T01:45:18.559Z,20.42
2022-08-26T01:45:28.798Z,20.41
2022-08-26T01:45:39.375Z,20.42
2022-08-26T01:45:49.422Z,20.41
2022-08-26T01:45:58.675Z,20.41
2022-08-26T01:46:08.541Z,20.43
2022-08-26T01:46:19.363Z,20.41
2022-08-26T01:46:30.511Z,20.42
2022-08-26T01:46:40.432Z,20.41
2022-08-26T01:46:48.663Z,20.41
2022-08-26T01:46:58.472Z,20.41
2022-08-26T01:47:10.468Z,20.41
2022-08-26T01:47:18.521Z,20.40
2022-08-26T01:47:28.483Z,20.41
2022-08-26T01:47:38.514Z,20.41
2022-08-26T01:47:56.484Z,20.42
2022-08-26T01:48:00.027Z,20.37
2022-08-26T01:48:11.962Z,20.39
2022-08-26T01:48:20.002Z,20.40
2022-08-26T01:48:30.964Z,20.41
2022-08-26T01:48:39.993Z,20.41
2022-08-26T01:48:50.026Z,20.41
2022-08-26T01:49:00.018Z,20.38
2022-08-26T01:49:12.003Z,20.41
2022-08-26T01:49:19.997Z,20.40
2022-08-26T01:49:32.031Z,20.43
2022-08-26T01:49:41.433Z,20.38
2022-08-26T01:49:51.934Z,20.40
2022-08-26T01:50:02.901Z,20.39
2022-08-26T01:50:11.949Z,20.36
2022-08-26T01:50:28.093Z,20.38
2022-08-26T01:50:30.295Z,20.37
2022-08-26T01:50:41.965Z,20.39
2022-08-26T01:50:51.459Z,20.37
2022-08-26T01:51:01.966Z,20.38
2022-08-26T01:51:11.949Z,20.39
2022-08-26T01:51:20.425Z,20.40
2022-08-26T01:51:31.934Z,20.40
2022-08-26T01:51:40.491Z,20.39
2022-08-26T01:51:50.425Z,20.41
2022-08-26T01:51:59.982Z,20.39
2022-08-26T01:52:12.005Z,20.40
2022-08-26T01:52:20.526Z,20.36
2022-08-26T01:52:29.995Z,20.37
2022-08-26T01:52:40.991Z,20.38
2022-08-26T01:52:54.345Z,20.36
2022-08-26T01:52:59.955Z,20.32
2022-08-26T01:53:11.329Z,20.36
2022-08-26T01:53:20.225Z,20.35
2022-08-26T01:53:31.926Z,20.36
2022-08-26T01:53:39.974Z,20.36
2022-08-26T01:53:50.005Z,20.36
2022-08-26T01:53:59.986Z,20.37
2022-08-26T01:54:13.730Z,20.37
2022-08-26T01:54:22.947Z,20.32
2022-08-26T01:54:31.420Z,20.31
2022-08-26T01:54:41.925Z,20.32
2022-08-26T01:54:51.785Z,20.29
2022-08-26T01:55:01.808Z,20.32
2022-08-26T01:55:11.446Z,20.33
2022-08-26T01:55:29.326Z,20.33
2022-08-26T01:55:33.390Z,20.29
2022-08-26T01:55:43.296Z,20.28
2022-08-26T01:55:51.377Z,20.30
2022-08-26T01:56:03.316Z,20.32
2022-08-26T01:56:13.302Z,20.31
2022-08-26T01:56:21.349Z,20.31
2022-08-26T01:56:33.437Z,20.33
2022-08-26T01:56:43.295Z,20.28
2022-08-26T01:56:53.299Z,20.26
2022-08-26T01:57:03.289Z,20.27
2022-08-26T01:57:13.301Z,20.29
2022-08-26T01:57:21.394Z,20.29
2022-08-26T01:57:33.287Z,20.31
2022-08-26T01:57:41.879Z,20.29
2022-08-26T01:57:51.903Z,20.29
2022-08-26T01:58:01.337Z,20.27
2022-08-26T01:58:11.878Z,20.28
2022-08-26T01:58:21.897Z,20.29
2022-08-26T01:58:31.318Z,20.29
2022-08-26T01:58:43.290Z,20.29
2022-08-26T01:58:51.325Z,20.28
2022-08-26T01:59:01.937Z,20.29
2022-08-26T01:59:12.231Z,20.29
2022-08-26T01:59:21.496Z,20.30
2022-08-26T01:59:31.954Z,20.29
2022-08-26T01:59:41.977Z,20.29
2022-08-26T01:59:52.018Z,20.29
2022-08-26T02:00:01.453Z,20.30
2022-08-26T02:00:11.377Z,20.30
2022-08-26T02:00:21.398Z,20.29
2022-08-26T02:00:32.158Z,20.31
2022-08-26T02:00:42.012Z,20.29
2022-08-26T02:00:51.653Z,20.26
2022-08-26T02:01:02.544Z,20.28
2022-08-26T02:01:12.051Z,20.28
2022-08-26T02:01:22.157Z,20.28
2022-08-26T02:01:31.340Z,20.28
2022-08-26T02:01:41.326Z,20.28
2022-08-26T02:01:51.363Z,20.28
2022-08-26T02:02:02.060Z,20.27
2022-08-26T02:02:13.249Z,20.28
2022-08-26T02:02:22.035Z,20.28
2022-08-26T02:02:33.322Z,20.28
2022-08-26T02:02:41.301Z,20.27
2022-08-26T02:02:51.328Z,20.26
2022-08-26T02:03:02.068Z,20.28
2022-08-26T02:03:13.253Z,20.27
2022-08-26T02:03:23.268Z,20.26
2022-08-26T02:03:31.342Z,20.26
2022-08-26T02:03:43.324Z,20.26
2022-08-26T02:03:51.316Z,20.25
2022-08-26T02:04:03.279Z,20.27
2022-08-26T02:04:13.281Z,20.25
2022-08-26T02:04:23.269Z,20.24
2022-08-26T02:04:31.358Z,20.22
2022-08-26T02:04:41.379Z,20.24
2022-08-26T02:04:51.999Z,20.24
2022-08-26T02:05:01.299Z,20.24
2022-08-26T02:05:13.259Z,20.24
2022-08-26T02:05:21.307Z,20.23
2022-08-26T02:05:31.332Z,20.24
2022-08-26T02:05:41.317Z,20.22
2022-08-26T02:05:51.650Z,20.21
2022-08-26T02:06:01.309Z,20.22
2022-08-26T02:06:11.287Z,20.21
2022-08-26T02:06:21.299Z,20.18
2022-08-26T02:06:33.239Z,20.18
2022-08-26T02:06:41.289Z,20.12
2022-08-26T02:06:51.299Z,20.13
2022-08-26T02:07:01.303Z,20.12
2022-08-26T02:07:11.548Z,20.12
2022-08-26T02:07:23.210Z,20.10
2022-08-26T02:07:31.410Z,20.05
2022-08-26T02:07:43.380Z,20.06
2022-08-26T02:07:51.920Z,20.07
2022-08-26T02:08:03.391Z,20.08
2022-08-26T02:08:11.398Z,20.06
2022-08-26T02:08:24.978Z,20.05
2022-08-26T02:08:31.600Z,20.04
2022-08-26T02:08:41.431Z,20.05
2022-08-26T02:08:53.388Z,20.07
2022-08-26T02:09:03.369Z,20.07
2022-08-26T02:09:13.539Z,20.07